createdAt,value
2022-07-28T00:00:15.103Z,13.11
2022-07-28T00:00:46.798Z,13.11
2022-07-28T00:01:19.959Z,13.00
2022-07-28T00:01:53.626Z,13.00
2022-07-28T00:02:22.136Z,13.00
2022-07-28T00:02:54.627Z,13.00
2022-07-28T00:03:27.008Z,13.00
2022-07-28T00:03:58.401Z,12.88
2022-07-28T00:04:30.020Z,12.88
2022-07-28T00:05:02.395Z,12.88
2022-07-28T00:05:34.497Z,12.88
2022-07-28T00:06:06.260Z,12.88
2022-07-28T00:06:38.448Z,12.88
2022-07-28T00:07:10.138Z,12.88
2022-07-28T00:07:42.606Z,12.88
2022-07-28T00:08:14.204Z,12.88
2022-07-28T00:08:45.713Z,12.88
2022-07-28T00:09:18.150Z,12.88
2022-07-28T00:09:49.698Z,12.88
2022-07-28T00:10:22.306Z,12.88
2022-07-28T00:10:53.562Z,12.88
2022-07-28T00:11:26.030Z,12.88
2022-07-28T00:11:57.392Z,12.88
2022-07-28T00:12:30.317Z,12.88
2022-07-28T00:13:02.322Z,12.88
2022-07-28T00:13:34.585Z,12.88
2022-07-28T00:14:06.184Z,12.88
2022-07-28T00:14:37.987Z,12.88
2022-07-28T00:15:10.103Z,12.88
2022-07-28T00:15:42.801Z,12.88
2022-07-28T00:16:13.334Z,12.88
2022-07-28T00:16:46.954Z,13.00
2022-07-28T00:17:17.303Z,13.00
2022-07-28T00:17:49.619Z,13.00
2022-07-28T00:18:23.301Z,13.00
2022-07-28T00:18:53.913Z,12.88
2022-07-28T00:19:25.275Z,12.88
2022-07-28T00:19:57.614Z,12.88
2022-07-28T00:20:29.204Z,12.88
2022-07-28T00:21:02.788Z,12.88
2022-07-28T00:21:32.980Z,12.88
2022-07-28T00:22:05.508Z,12.88
2022-07-28T00:22:37.036Z,12.88
2022-07-28T00:23:09.566Z,12.88
2022-07-28T00:23:40.808Z,12.77
2022-07-28T00:24:13.871Z,12.77
2022-07-28T00:24:44.950Z,12.77
2022-07-28T00:25:17.874Z,12.77
2022-07-28T00:25:48.785Z,12.77
2022-07-28T00:26:21.326Z,12.77
2022-07-28T00:26:52.931Z,12.77
2022-07-28T00:27:25.386Z,12.77
2022-07-28T00:27:57.714Z,12.77
2022-07-28T00:28:29.248Z,12.77
2022-07-28T00:29:00.846Z,12.77
2022-07-28T00:29:49.168Z,12.77
2022-07-28T00:30:05.391Z,12.77
2022-07-28T00:30:37.258Z,12.72
2022-07-28T00:31:10.630Z,12.72
2022-07-28T00:31:41.249Z,12.72
2022-07-28T00:32:13.690Z,12.72
2022-07-28T00:32:45.932Z,12.72
2022-07-28T00:33:20.340Z,12.72
2022-07-28T00:33:49.103Z,12.61
2022-07-28T00:34:20.638Z,12.61
2022-07-28T00:34:53.765Z,12.61
2022-07-28T00:35:30.485Z,12.61
2022-07-28T00:35:57.028Z,12.61
2022-07-28T00:36:28.388Z,12.61
2022-07-28T00:37:00.893Z,12.61
2022-07-28T00:37:32.468Z,12.50
2022-07-28T00:38:04.816Z,12.50
2022-07-28T00:38:36.361Z,12.50
2022-07-28T00:39:08.867Z,12.50
2022-07-28T00:39:41.524Z,12.50
2022-07-28T00:40:12.883Z,12.50
2022-07-28T00:40:44.448Z,12.50
2022-07-28T00:41:16.929Z,12.50
2022-07-28T00:41:48.255Z,12.50
2022-07-28T00:42:20.650Z,12.38
2022-07-28T00:42:52.325Z,12.38
2022-07-28T00:43:24.818Z,12.38
2022-07-28T00:43:57.076Z,12.38
2022-07-28T00:44:28.943Z,12.38
2022-07-28T00:45:00.090Z,12.38
2022-07-28T00:45:32.878Z,12.38
2022-07-28T00:46:04.101Z,12.38
2022-07-28T00:46:37.470Z,12.38
2022-07-28T00:47:08.987Z,12.38
2022-07-28T00:47:40.394Z,12.38
2022-07-28T00:48:12.026Z,12.38
2022-07-28T00:48:44.599Z,12.38
2022-07-28T00:49:15.914Z,12.27
2022-07-28T00:49:48.792Z,12.27
2022-07-28T00:50:21.090Z,12.27
2022-07-28T00:50:52.407Z,12.27
2022-07-28T00:51:23.733Z,12.27
2022-07-28T00:51:56.231Z,12.27
2022-07-28T00:52:27.817Z,12.27
2022-07-28T00:53:00.582Z,12.27
2022-07-28T00:53:31.779Z,12.27
2022-07-28T00:54:09.722Z,12.27
2022-07-28T00:54:36.622Z,12.27
2022-07-28T00:55:08.272Z,12.27
2022-07-28T00:56:05.519Z,12.22
2022-07-28T00:56:12.301Z,12.22
2022-07-28T00:56:43.680Z,12.27
2022-07-28T00:57:16.159Z,12.27
2022-07-28T00:57:48.542Z,12.27
2022-07-28T00:58:21.075Z,12.27
2022-07-28T00:58:52.546Z,12.27
2022-07-28T00:59:24.388Z,12.27
2022-07-28T00:59:55.508Z,12.27
2022-07-28T01:00:29.204Z,12.27
2022-07-28T01:00:59.412Z,12.27
2022-07-28T01:01:33.115Z,12.22
2022-07-28T01:02:03.508Z,12.22
2022-07-28T01:02:36.102Z,12.22
2022-07-28T01:03:08.212Z,12.22
2022-07-28T01:03:40.816Z,12.22
2022-07-28T01:04:11.759Z,12.22
2022-07-28T01:04:43.802Z,12.22
2022-07-28T01:05:15.327Z,12.22
2022-07-28T01:05:48.689Z,12.22
2022-07-28T01:06:19.307Z,12.22
2022-07-28T01:06:51.578Z,12.22
2022-07-28T01:07:23.155Z,12.22
2022-07-28T01:07:55.655Z,12.22
2022-07-28T01:08:27.009Z,12.22
2022-07-28T01:09:00.167Z,12.22
2022-07-28T01:09:31.578Z,12.22
2022-07-28T01:10:03.982Z,12.22
2022-07-28T01:10:34.997Z,12.22
2022-07-28T01:11:07.601Z,12.22
2022-07-28T01:11:42.622Z,12.11
2022-07-28T01:12:11.419Z,12.11
2022-07-28T01:12:42.935Z,12.11
2022-07-28T01:13:15.538Z,12.11
2022-07-28T01:13:46.947Z,12.11
2022-07-28T01:14:19.963Z,12.11
2022-07-28T01:14:53.061Z,12.11
2022-07-28T01:15:23.895Z,12.22
2022-07-28T01:15:56.314Z,12.22
2022-07-28T01:16:27.462Z,12.22
2022-07-28T01:16:58.806Z,12.22
2022-07-28T01:17:31.291Z,12.22
2022-07-28T01:18:02.633Z,12.27
2022-07-28T01:18:37.160Z,12.27
2022-07-28T01:19:06.640Z,12.27
2022-07-28T01:19:39.725Z,12.27
2022-07-28T01:20:12.816Z,12.38
2022-07-28T01:20:43.139Z,12.38
2022-07-28T01:21:14.643Z,12.38
2022-07-28T01:21:47.361Z,12.38
2022-07-28T01:22:18.476Z,12.50
2022-07-28T01:22:51.028Z,12.50
2022-07-28T01:23:22.514Z,12.50
2022-07-28T01:23:54.863Z,12.50
2022-07-28T01:24:26.412Z,12.50
2022-07-28T01:24:59.025Z,12.50
2022-07-28T01:25:31.059Z,12.50
2022-07-28T01:26:02.812Z,12.61
2022-07-28T01:26:35.341Z,12.61
2022-07-28T01:27:06.922Z,12.61
2022-07-28T01:27:38.225Z,12.72
2022-07-28T01:28:10.757Z,12.72
2022-07-28T01:28:42.310Z,12.72
2022-07-28T01:29:14.791Z,12.72
2022-07-28T01:29:46.688Z,12.77
2022-07-28T01:30:21.390Z,12.77
2022-07-28T01:30:50.366Z,12.77
2022-07-28T01:31:22.608Z,12.77
2022-07-28T01:31:54.101Z,12.88
2022-07-28T01:32:26.717Z,12.88
2022-07-28T01:32:58.163Z,12.88
2022-07-28T01:33:30.612Z,12.88
2022-07-28T01:34:01.996Z,12.88
2022-07-28T01:34:36.606Z,12.88
2022-07-28T01:35:06.087Z,12.88
2022-07-28T01:35:38.727Z,12.88
2022-07-28T01:36:10.966Z,12.88
2022-07-28T01:36:42.584Z,12.88
2022-07-28T01:37:13.847Z,12.88
2022-07-28T01:37:46.630Z,12.88
2022-07-28T01:38:17.867Z,12.77
2022-07-28T01:38:50.227Z,12.77
2022-07-28T01:39:21.766Z,12.77
2022-07-28T01:39:55.259Z,12.77
2022-07-28T01:40:26.906Z,12.77
2022-07-28T01:40:59.231Z,12.72
2022-07-28T01:41:31.668Z,12.72
2022-07-28T01:42:02.959Z,12.72
2022-07-28T01:42:34.145Z,12.72
2022-07-28T01:43:07.204Z,12.72
2022-07-28T01:43:37.622Z,12.61
2022-07-28T01:44:10.506Z,12.61
2022-07-28T01:44:41.538Z,12.61
2022-07-28T01:45:14.491Z,12.50
2022-07-28T01:45:45.592Z,12.50
2022-07-28T01:46:19.263Z,12.50
2022-07-28T01:46:49.539Z,12.50
2022-07-28T01:47:22.055Z,12.50
2022-07-28T01:47:53.523Z,12.50
2022-07-28T01:48:25.819Z,12.50
2022-07-28T01:48:57.431Z,12.50
2022-07-28T01:49:29.932Z,12.38
2022-07-28T01:50:01.847Z,12.38
2022-07-28T01:50:33.973Z,12.38
2022-07-28T01:51:05.387Z,12.38
2022-07-28T01:51:37.862Z,12.38
2022-07-28T01:52:10.545Z,12.38
2022-07-28T01:52:41.984Z,12.38
2022-07-28T01:53:13.273Z,12.27
2022-07-28T01:53:45.827Z,12.27
2022-07-28T01:54:17.407Z,12.27
2022-07-28T01:54:50.154Z,12.27
2022-07-28T01:55:21.362Z,12.27
2022-07-28T01:55:54.572Z,12.27
2022-07-28T01:56:27.211Z,12.27
2022-07-28T01:56:57.905Z,12.22
2022-07-28T01:57:29.202Z,12.22
2022-07-28T01:58:01.830Z,12.22
2022-07-28T01:58:33.074Z,12.22
2022-07-28T01:59:05.569Z,12.22
2022-07-28T01:59:38.012Z,12.11
2022-07-28T02:00:11.214Z,12.11
2022-07-28T02:00:40.955Z,12.11
2022-07-28T02:01:13.526Z,12.11
2022-07-28T02:01:44.907Z,12.11
2022-07-28T02:02:17.599Z,12.11
2022-07-28T02:02:48.837Z,12.11
2022-07-28T02:03:21.400Z,12.11
2022-07-28T02:03:53.647Z,12.11
2022-07-28T02:04:27.121Z,12.11
2022-07-28T02:04:56.846Z,12.11
2022-07-28T02:05:30.346Z,12.11
2022-07-28T02:06:00.680Z,12.11
2022-07-28T02:06:33.458Z,12.11
2022-07-28T02:07:04.761Z,12.11
2022-07-28T02:07:37.313Z,12.11
2022-07-28T02:08:08.679Z,12.11
2022-07-28T02:08:41.192Z,12.00
2022-07-28T02:09:12.510Z,12.00
2022-07-28T02:09:45.020Z,12.00
2022-07-28T02:10:16.687Z,12.00
2022-07-28T02:10:49.034Z,12.00
2022-07-28T02:11:20.452Z,12.00
2022-07-28T02:11:53.010Z,12.00
2022-07-28T02:12:25.541Z,12.00
2022-07-28T02:12:57.077Z,12.00
2022-07-28T02:13:29.400Z,11.88
2022-07-28T02:14:00.917Z,11.88
2022-07-28T02:14:32.388Z,11.88
2022-07-28T02:15:05.787Z,11.88
2022-07-28T02:15:36.413Z,11.88
2022-07-28T02:16:08.970Z,11.88
2022-07-28T02:16:40.184Z,11.88
2022-07-28T02:17:17.124Z,11.88
2022-07-28T02:17:44.206Z,11.88
2022-07-28T02:18:16.779Z,11.88
2022-07-28T02:18:48.129Z,11.88
2022-07-28T02:19:21.558Z,11.88
2022-07-28T02:19:52.131Z,11.88
2022-07-28T02:20:24.978Z,11.88
2022-07-28T02:20:56.027Z,11.88
2022-07-28T02:21:28.686Z,11.88
2022-07-28T02:22:00.129Z,11.88
2022-07-28T02:22:33.583Z,11.88
2022-07-28T02:23:03.979Z,11.88
2022-07-28T02:23:36.536Z,11.88
2022-07-28T02:24:08.101Z,11.88
2022-07-28T02:24:40.477Z,11.88
2022-07-28T02:25:12.789Z,11.88
2022-07-28T02:25:46.466Z,11.88
2022-07-28T02:26:15.767Z,11.88
2022-07-28T02:26:48.431Z,11.88
2022-07-28T02:27:20.985Z,11.88
2022-07-28T02:27:52.373Z,11.88
2022-07-28T02:28:24.655Z,11.88
2022-07-28T02:28:56.450Z,11.88
2022-07-28T02:29:49.871Z,11.88
2022-07-28T02:30:01.895Z,11.77
2022-07-28T02:30:31.641Z,11.77
2022-07-28T02:31:04.311Z,11.77
2022-07-28T02:31:35.947Z,11.77
2022-07-28T02:32:24.129Z,11.77
2022-07-28T02:32:40.883Z,11.77
2022-07-28T02:33:12.231Z,11.77
2022-07-28T02:33:59.971Z,11.77
2022-07-28T02:34:17.101Z,11.88
2022-07-28T02:34:47.616Z,11.88
2022-07-28T02:35:20.444Z,11.88
2022-07-28T02:35:51.420Z,11.88
2022-07-28T02:36:24.914Z,11.88
2022-07-28T02:36:55.470Z,12.00
2022-07-28T02:37:29.029Z,12.00
2022-07-28T02:38:00.648Z,12.00
2022-07-28T02:38:32.710Z,12.00
2022-07-28T02:39:04.367Z,12.00
2022-07-28T02:39:37.828Z,12.00
2022-07-28T02:40:07.458Z,11.88
2022-07-28T02:40:40.887Z,11.88
2022-07-28T02:41:11.388Z,11.88
2022-07-28T02:41:43.926Z,11.88
2022-07-28T02:42:16.334Z,11.88
2022-07-28T02:42:48.039Z,11.88
2022-07-28T02:43:19.082Z,11.88
2022-07-28T02:43:51.703Z,11.88
2022-07-28T02:44:23.133Z,11.88
2022-07-28T02:44:55.668Z,11.88
2022-07-28T02:45:28.813Z,11.88
2022-07-28T02:45:59.587Z,11.88
2022-07-28T02:46:31.122Z,11.88
2022-07-28T02:47:03.677Z,11.88
2022-07-28T02:47:34.975Z,11.88
2022-07-28T02:48:07.473Z,11.88
2022-07-28T02:48:39.067Z,11.88
2022-07-28T02:49:11.471Z,11.88
2022-07-28T02:49:42.822Z,11.88
2022-07-28T02:50:15.571Z,11.88
2022-07-28T02:50:48.088Z,11.88
2022-07-28T02:51:20.766Z,11.88
2022-07-28T02:51:50.772Z,11.88
2022-07-28T02:52:23.541Z,11.88
2022-07-28T02:52:54.848Z,11.88
2022-07-28T02:53:27.165Z,11.88
2022-07-28T02:53:58.710Z,11.77
2022-07-28T02:54:31.318Z,11.77
2022-07-28T02:55:03.684Z,11.77
2022-07-28T02:55:36.138Z,11.77
2022-07-28T02:56:06.676Z,11.77
2022-07-28T02:56:39.621Z,11.77
2022-07-28T02:57:10.558Z,11.77
2022-07-28T02:57:43.219Z,11.72
2022-07-28T02:58:14.738Z,11.72
2022-07-28T02:58:47.388Z,11.72
2022-07-28T02:59:19.357Z,11.72
2022-07-28T02:59:50.985Z,11.72
2022-07-28T03:00:23.836Z,11.72
2022-07-28T03:00:54.978Z,11.72
2022-07-28T03:01:26.467Z,11.72
2022-07-28T03:01:59.074Z,11.72
2022-07-28T03:02:30.284Z,11.72
2022-07-28T03:03:02.802Z,11.72
2022-07-28T03:03:34.553Z,11.72
2022-07-28T03:04:09.951Z,11.72
2022-07-28T03:04:38.274Z,11.72
2022-07-28T03:05:11.823Z,11.72
2022-07-28T03:05:42.374Z,11.72
2022-07-28T03:06:15.332Z,11.72
2022-07-28T03:06:46.382Z,11.72
2022-07-28T03:07:18.762Z,11.72
2022-07-28T03:07:50.660Z,11.72
2022-07-28T03:08:22.714Z,11.72
2022-07-28T03:08:54.111Z,11.72
2022-07-28T03:09:26.979Z,11.72
2022-07-28T03:09:58.180Z,11.72
2022-07-28T03:10:33.722Z,11.61
2022-07-28T03:11:02.020Z,11.61
2022-07-28T03:11:34.974Z,11.61
2022-07-28T03:12:06.833Z,11.61
2022-07-28T03:12:39.526Z,11.61
2022-07-28T03:13:09.968Z,11.50
2022-07-28T03:13:42.643Z,11.50
2022-07-28T03:14:14.475Z,11.50
2022-07-28T03:14:46.478Z,11.50
2022-07-28T03:15:18.198Z,11.50
2022-07-28T03:15:50.252Z,11.50
2022-07-28T03:16:21.861Z,11.50
2022-07-28T03:16:55.760Z,11.50
2022-07-28T03:17:26.801Z,11.50
2022-07-28T03:17:58.218Z,11.50
2022-07-28T03:18:29.769Z,11.50
2022-07-28T03:19:02.308Z,11.50
2022-07-28T03:19:34.033Z,11.50
2022-07-28T03:20:06.291Z,11.50
2022-07-28T03:20:37.684Z,11.38
2022-07-28T03:21:11.276Z,11.38
2022-07-28T03:21:41.536Z,11.38
2022-07-28T03:22:14.118Z,11.38
2022-07-28T03:22:46.744Z,11.38
2022-07-28T03:23:18.131Z,11.38
2022-07-28T03:23:49.623Z,11.38
2022-07-28T03:24:22.061Z,11.38
2022-07-28T03:24:54.754Z,11.38
2022-07-28T03:25:27.507Z,11.38
2022-07-28T03:25:57.416Z,11.38
2022-07-28T03:26:30.694Z,11.38
2022-07-28T03:27:01.605Z,11.38
2022-07-28T03:27:35.457Z,11.27
2022-07-28T03:28:06.285Z,11.27
2022-07-28T03:28:37.991Z,11.27
2022-07-28T03:29:09.256Z,11.27
2022-07-28T03:29:42.008Z,11.38
2022-07-28T03:30:13.852Z,11.38
2022-07-28T03:30:46.035Z,11.38
2022-07-28T03:31:17.271Z,11.38
2022-07-28T03:31:49.700Z,11.38
2022-07-28T03:32:21.378Z,11.38
2022-07-28T03:32:53.801Z,11.38
2022-07-28T03:33:25.322Z,11.38
2022-07-28T03:33:57.613Z,11.50
2022-07-28T03:34:29.187Z,11.50
2022-07-28T03:35:01.765Z,11.50
2022-07-28T03:35:33.119Z,11.50
2022-07-28T03:36:05.634Z,11.50
2022-07-28T03:36:36.895Z,11.50
2022-07-28T03:37:09.458Z,11.38
2022-07-28T03:37:41.027Z,11.38
2022-07-28T03:38:14.577Z,11.38
2022-07-28T03:38:45.456Z,11.38
2022-07-28T03:39:17.626Z,11.38
2022-07-28T03:39:48.910Z,11.38
2022-07-28T03:40:27.348Z,11.38
2022-07-28T03:40:31.999Z,11.38
2022-07-28T03:40:52.981Z,11.38
2022-07-28T03:41:25.516Z,11.38
2022-07-28T03:41:56.873Z,11.38
2022-07-28T03:42:29.230Z,11.38
2022-07-28T03:43:00.788Z,11.38
2022-07-28T03:43:33.333Z,11.38
2022-07-28T03:44:04.827Z,11.27
2022-07-28T03:44:37.169Z,11.27
2022-07-28T03:45:11.179Z,11.27
2022-07-28T03:45:42.543Z,11.27
2022-07-28T03:46:13.506Z,11.27
2022-07-28T03:46:45.442Z,11.27
2022-07-28T03:47:16.657Z,11.27
2022-07-28T03:47:49.168Z,11.27
2022-07-28T03:48:20.521Z,11.27
2022-07-28T03:48:53.133Z,11.27
2022-07-28T03:49:24.572Z,11.27
2022-07-28T03:49:57.080Z,11.27
2022-07-28T03:50:29.691Z,11.27
2022-07-28T03:51:00.943Z,11.27
2022-07-28T03:51:32.477Z,11.27
2022-07-28T03:52:04.825Z,11.27
2022-07-28T03:52:36.776Z,11.27
2022-07-28T03:53:08.975Z,11.27
2022-07-28T03:53:40.353Z,11.27
2022-07-28T03:54:13.090Z,11.27
2022-07-28T03:54:44.327Z,11.27
2022-07-28T03:55:18.619Z,11.27
2022-07-28T03:55:48.174Z,11.27
2022-07-28T03:56:20.935Z,11.27
2022-07-28T03:56:52.250Z,11.27
2022-07-28T03:57:25.810Z,11.27
2022-07-28T03:57:57.100Z,11.27
2022-07-28T03:58:29.210Z,11.27
2022-07-28T03:59:01.158Z,11.27
2022-07-28T03:59:32.694Z,11.27
2022-07-28T04:00:09.530Z,11.27
2022-07-28T04:00:36.751Z,11.27
2022-07-28T04:01:08.648Z,11.27
2022-07-28T04:01:40.654Z,11.27
2022-07-28T04:02:12.088Z,11.27
2022-07-28T04:02:44.541Z,11.22
2022-07-28T04:03:36.366Z,11.22
2022-07-28T04:03:49.348Z,11.22
2022-07-28T04:04:19.844Z,11.22
2022-07-28T04:04:52.786Z,11.22
2022-07-28T04:05:24.929Z,11.22
2022-07-28T04:05:56.408Z,11.22
2022-07-28T04:06:28.834Z,11.22
2022-07-28T04:07:00.305Z,11.22
2022-07-28T04:07:32.668Z,11.22
2022-07-28T04:08:04.269Z,11.22
2022-07-28T04:08:35.737Z,11.22
2022-07-28T04:09:09.181Z,11.22
2022-07-28T04:09:40.488Z,11.22
2022-07-28T04:10:12.418Z,11.22
2022-07-28T04:10:44.746Z,11.22
2022-07-28T04:11:16.561Z,11.22
2022-07-28T04:11:47.639Z,11.22
2022-07-28T04:12:20.221Z,11.22
2022-07-28T04:12:52.619Z,11.22
2022-07-28T04:13:24.081Z,11.22
2022-07-28T04:13:56.398Z,11.22
2022-07-28T04:14:29.049Z,11.22
2022-07-28T04:15:00.724Z,11.22
2022-07-28T04:15:31.889Z,11.11
2022-07-28T04:16:04.558Z,11.11
2022-07-28T04:16:36.237Z,11.11
2022-07-28T04:17:07.361Z,11.11
2022-07-28T04:17:39.956Z,11.11
2022-07-28T04:18:11.517Z,11.11
2022-07-28T04:18:43.875Z,11.11
2022-07-28T04:19:15.239Z,11.11
2022-07-28T04:19:48.031Z,11.11
2022-07-28T04:20:19.570Z,11.11
2022-07-28T04:20:51.646Z,11.11
2022-07-28T04:21:23.168Z,11.22
2022-07-28T04:21:55.993Z,11.22
2022-07-28T04:22:28.045Z,11.22
2022-07-28T04:23:00.561Z,11.22
2022-07-28T04:23:31.112Z,11.22
2022-07-28T04:24:03.902Z,11.22
2022-07-28T04:24:34.944Z,11.22
2022-07-28T04:25:10.388Z,11.22
2022-07-28T04:25:39.126Z,11.22
2022-07-28T04:26:11.756Z,11.22
2022-07-28T04:26:44.092Z,11.22
2022-07-28T04:27:16.398Z,11.22
2022-07-28T04:27:46.935Z,11.22
2022-07-28T04:28:19.631Z,11.22
2022-07-28T04:28:54.928Z,11.22
2022-07-28T04:29:27.254Z,11.22
2022-07-28T04:29:55.881Z,11.22
2022-07-28T04:30:27.531Z,11.22
2022-07-28T04:30:58.830Z,11.22
2022-07-28T04:31:34.424Z,11.22
2022-07-28T04:32:02.892Z,11.22
2022-07-28T04:32:37.415Z,11.22
2022-07-28T04:33:06.672Z,11.27
2022-07-28T04:33:39.133Z,11.27
2022-07-28T04:34:10.858Z,11.27
2022-07-28T04:34:43.320Z,11.27
2022-07-28T04:35:17.507Z,11.27
2022-07-28T04:35:48.010Z,11.27
2022-07-28T04:36:18.699Z,11.27
2022-07-28T04:36:51.164Z,11.27
2022-07-28T04:37:22.624Z,11.27
2022-07-28T04:37:56.193Z,11.38
2022-07-28T04:38:26.461Z,11.38
2022-07-28T04:39:00.107Z,11.38
2022-07-28T04:39:30.450Z,11.38
2022-07-28T04:40:03.221Z,11.50
2022-07-28T04:40:34.471Z,11.50
2022-07-28T04:41:08.059Z,11.50
2022-07-28T04:41:38.302Z,11.50
2022-07-28T04:42:10.871Z,11.50
2022-07-28T04:42:42.691Z,11.50
2022-07-28T04:43:15.794Z,11.50
2022-07-28T04:43:47.265Z,11.50
2022-07-28T04:44:18.731Z,11.50
2022-07-28T04:44:50.239Z,11.50
2022-07-28T04:45:23.108Z,11.50
2022-07-28T04:45:54.648Z,11.61
2022-07-28T04:46:26.688Z,11.61
2022-07-28T04:46:58.417Z,11.61
2022-07-28T04:47:30.585Z,11.61
2022-07-28T04:48:02.045Z,11.61
2022-07-28T04:48:36.810Z,11.61
2022-07-28T04:49:06.218Z,11.61
2022-07-28T04:49:40.617Z,11.61
2022-07-28T04:50:10.432Z,11.61
2022-07-28T04:50:42.649Z,11.61
2022-07-28T04:51:13.912Z,11.61
2022-07-28T04:51:47.423Z,11.61
2022-07-28T04:52:19.053Z,11.61
2022-07-28T04:52:50.837Z,11.72
2022-07-28T04:53:22.902Z,11.72
2022-07-28T04:53:55.220Z,11.72
2022-07-28T04:54:26.784Z,11.72
2022-07-28T04:54:59.378Z,11.72
2022-07-28T04:55:29.857Z,11.72
2022-07-28T04:56:02.430Z,11.72
2022-07-28T04:56:33.772Z,11.72
2022-07-28T04:57:10.430Z,11.72
2022-07-28T04:57:37.671Z,11.72
2022-07-28T04:58:10.209Z,11.72
2022-07-28T04:58:41.596Z,11.72
2022-07-28T04:59:14.046Z,11.72
2022-07-28T04:59:46.031Z,11.72
2022-07-28T05:00:21.373Z,11.72
2022-07-28T05:00:50.667Z,11.72
2022-07-28T05:01:22.085Z,11.72
2022-07-28T05:01:54.446Z,11.72
2022-07-28T05:02:26.942Z,11.72
2022-07-28T05:02:57.381Z,11.77
2022-07-28T05:03:36.126Z,11.77
2022-07-28T05:04:01.538Z,11.77
2022-07-28T05:04:36.234Z,11.77
2022-07-28T05:05:05.657Z,11.77
2022-07-28T05:05:37.900Z,11.88
2022-07-28T05:06:09.387Z,11.88
2022-07-28T05:06:41.759Z,11.88
2022-07-28T05:07:13.252Z,11.88
2022-07-28T05:07:46.519Z,12.00
2022-07-28T05:08:17.356Z,12.00
2022-07-28T05:08:49.714Z,12.00
2022-07-28T05:09:21.230Z,12.11
2022-07-28T05:09:54.736Z,12.11
2022-07-28T05:10:25.421Z,12.11
2022-07-28T05:10:58.098Z,12.22
2022-07-28T05:11:29.138Z,12.22
2022-07-28T05:12:02.165Z,12.22
2022-07-28T05:12:32.958Z,12.22
2022-07-28T05:13:05.618Z,12.22
2022-07-28T05:13:37.080Z,12.27
2022-07-28T05:14:12.598Z,12.27
2022-07-28T05:14:42.089Z,12.27
2022-07-28T05:15:13.890Z,12.27
2022-07-28T05:15:45.000Z,12.38
2022-07-28T05:16:17.405Z,12.38
2022-07-28T05:16:48.941Z,12.38
2022-07-28T05:17:21.401Z,12.50
2022-07-28T05:17:52.744Z,12.50
2022-07-28T05:18:25.453Z,12.50
2022-07-28T05:18:56.803Z,12.50
2022-07-28T05:19:29.443Z,12.61
2022-07-28T05:20:00.973Z,12.61
2022-07-28T05:20:34.357Z,12.61
2022-07-28T05:21:04.744Z,12.61
2022-07-28T05:21:37.237Z,12.72
2022-07-28T05:22:09.626Z,12.72
2022-07-28T05:22:41.435Z,12.72
2022-07-28T05:23:12.736Z,12.72
2022-07-28T05:23:47.646Z,12.72
2022-07-28T05:24:22.251Z,12.72
2022-07-28T05:24:50.042Z,12.72
2022-07-28T05:25:20.875Z,12.77
2022-07-28T05:25:52.887Z,12.77
2022-07-28T05:26:24.453Z,12.77
2022-07-28T05:26:57.883Z,12.77
2022-07-28T05:27:28.532Z,12.88
2022-07-28T05:28:01.859Z,12.88
2022-07-28T05:28:32.501Z,13.00
2022-07-28T05:29:05.017Z,13.00
2022-07-28T05:29:46.782Z,13.11
2022-07-28T05:30:10.317Z,13.11
2022-07-28T05:30:41.345Z,13.11
2022-07-28T05:31:13.012Z,13.22
2022-07-28T05:31:44.351Z,13.27
2022-07-28T05:32:17.896Z,13.38
2022-07-28T05:32:48.337Z,13.38
2022-07-28T05:33:20.571Z,13.50
2022-07-28T05:33:52.266Z,13.50
2022-07-28T05:34:24.746Z,13.61
2022-07-28T05:34:56.205Z,13.61
2022-07-28T05:35:28.701Z,13.72
2022-07-28T05:36:00.100Z,13.72
2022-07-28T05:36:32.658Z,13.77
2022-07-28T05:37:06.083Z,13.77
2022-07-28T05:37:36.590Z,13.88
2022-07-28T05:38:11.028Z,13.88
2022-07-28T05:38:41.043Z,14.00
2022-07-28T05:39:11.943Z,14.00
2022-07-28T05:39:44.428Z,14.11
2022-07-28T05:40:16.190Z,14.11
2022-07-28T05:40:48.383Z,14.22
2022-07-28T05:41:19.908Z,14.27
2022-07-28T05:41:52.447Z,14.27
2022-07-28T05:42:23.826Z,14.38
2022-07-28T05:42:56.213Z,14.50
2022-07-28T05:43:27.743Z,14.50
2022-07-28T05:44:00.412Z,14.61
2022-07-28T05:44:37.854Z,14.61
2022-07-28T05:45:05.177Z,14.72
2022-07-28T05:45:36.012Z,14.72
2022-07-28T05:46:08.356Z,14.77
2022-07-28T05:46:39.571Z,14.88
2022-07-28T05:47:12.127Z,15.00
2022-07-28T05:47:43.603Z,15.00
2022-07-28T05:48:16.272Z,15.00
2022-07-28T05:48:47.583Z,15.11
2022-07-28T05:49:20.124Z,15.11
2022-07-28T05:49:51.567Z,15.11
2022-07-28T05:50:24.029Z,15.22
2022-07-28T05:50:56.519Z,15.22
2022-07-28T05:51:28.050Z,15.22
2022-07-28T05:51:59.526Z,15.22
2022-07-28T05:52:32.304Z,15.22
2022-07-28T05:53:04.374Z,15.22
2022-07-28T05:53:37.833Z,15.22
2022-07-28T05:54:07.489Z,15.22
2022-07-28T05:54:40.085Z,15.22
2022-07-28T05:55:11.547Z,15.38
2022-07-28T05:56:00.399Z,15.38
2022-07-28T05:56:15.287Z,15.38
2022-07-28T05:56:50.275Z,15.61
2022-07-28T05:57:19.477Z,15.77
2022-07-28T05:57:51.727Z,15.88
2022-07-28T05:58:23.184Z,16.11
2022-07-28T05:58:56.903Z,16.38
2022-07-28T05:59:27.176Z,16.38
2022-07-28T06:00:01.638Z,16.50
2022-07-28T06:00:31.177Z,16.61
2022-07-28T06:01:03.805Z,16.72
2022-07-28T06:01:36.289Z,16.72
2022-07-28T06:02:07.802Z,16.72
2022-07-28T06:02:39.249Z,16.77
2022-07-28T06:03:12.075Z,17.11
2022-07-28T06:03:43.229Z,17.22
2022-07-28T06:04:28.013Z,17.38
2022-07-28T06:04:46.887Z,17.38
2022-07-28T06:05:20.027Z,17.61
2022-07-28T06:06:14.391Z,17.61
2022-07-28T06:06:24.393Z,17.61
2022-07-28T06:06:55.020Z,17.50
2022-07-28T06:07:43.149Z,17.50
2022-07-28T06:07:58.844Z,17.50
2022-07-28T06:08:31.256Z,17.61
2022-07-28T06:09:02.698Z,17.61
2022-07-28T06:09:39.741Z,17.61
2022-07-28T06:10:06.705Z,17.61
2022-07-28T06:10:39.247Z,17.50
2022-07-28T06:11:17.848Z,17.50
2022-07-28T06:11:43.144Z,17.38
2022-07-28T06:12:14.703Z,17.27
2022-07-28T06:12:47.175Z,17.27
2022-07-28T06:13:19.645Z,17.27
2022-07-28T06:13:51.687Z,17.38
2022-07-28T06:14:22.561Z,17.38
2022-07-28T06:14:55.198Z,17.50
2022-07-28T06:15:26.928Z,17.50
2022-07-28T06:15:59.077Z,17.61
2022-07-28T06:16:30.508Z,17.72
2022-07-28T06:17:03.018Z,17.77
2022-07-28T06:17:34.467Z,17.77
2022-07-28T06:18:06.845Z,17.88
2022-07-28T06:18:38.555Z,18.00
2022-07-28T06:19:10.735Z,18.00
2022-07-28T06:19:42.383Z,18.11
2022-07-28T06:20:15.347Z,18.11
2022-07-28T06:20:46.238Z,18.22
2022-07-28T06:21:18.756Z,18.22
2022-07-28T06:21:50.268Z,18.27
2022-07-28T06:22:22.935Z,18.38
2022-07-28T06:22:54.216Z,18.50
2022-07-28T06:23:26.691Z,18.72
2022-07-28T06:23:58.225Z,18.77
2022-07-28T06:24:30.700Z,18.88
2022-07-28T06:25:02.146Z,19.00
2022-07-28T06:25:34.956Z,19.00
2022-07-28T06:26:06.239Z,19.00
2022-07-28T06:26:43.864Z,19.00
2022-07-28T06:27:10.074Z,19.00
2022-07-28T06:27:42.683Z,19.22
2022-07-28T06:28:14.813Z,19.38
2022-07-28T06:28:46.511Z,19.38
2022-07-28T06:29:18.843Z,19.50
2022-07-28T06:29:50.514Z,19.61
2022-07-28T06:30:22.231Z,19.61
2022-07-28T06:30:54.531Z,19.61
2022-07-28T06:31:25.829Z,19.61
2022-07-28T06:31:58.638Z,19.61
2022-07-28T06:32:29.894Z,19.50
2022-07-28T06:33:04.294Z,19.50
2022-07-28T06:33:33.696Z,19.50
2022-07-28T06:34:06.416Z,19.50
2022-07-28T06:34:37.748Z,19.50
2022-07-28T06:35:10.625Z,19.50
2022-07-28T06:35:43.208Z,19.61
2022-07-28T06:36:15.027Z,19.61
2022-07-28T06:36:45.694Z,19.50
2022-07-28T06:37:19.045Z,19.50
2022-07-28T06:37:49.466Z,19.50
2022-07-28T06:38:22.199Z,19.38
2022-07-28T06:38:53.624Z,19.38
2022-07-28T06:39:26.095Z,19.38
2022-07-28T06:39:57.467Z,19.38
2022-07-28T06:40:30.153Z,19.38
2022-07-28T06:41:01.360Z,19.38
2022-07-28T06:41:35.260Z,19.50
2022-07-28T06:42:05.450Z,19.50
2022-07-28T06:42:37.992Z,19.61
2022-07-28T06:43:09.341Z,19.72
2022-07-28T06:43:41.874Z,19.77
2022-07-28T06:44:13.767Z,19.77
2022-07-28T06:44:58.224Z,19.77
2022-07-28T06:45:19.942Z,19.77
2022-07-28T06:45:49.999Z,19.88
2022-07-28T06:46:22.203Z,19.88
2022-07-28T06:46:54.914Z,19.88
2022-07-28T06:47:26.269Z,19.88
2022-07-28T06:47:57.696Z,20.00
2022-07-28T06:48:29.524Z,20.11
2022-07-28T06:49:01.714Z,20.22
2022-07-28T06:49:33.319Z,20.38
2022-07-28T06:50:05.980Z,20.38
2022-07-28T06:50:37.054Z,20.50
2022-07-28T06:51:09.543Z,20.50